Time;durP1;ratioP1;P1;durP2;ratioP2;P2;SDS_P1;SDS_P2;PMS_P1;PMS_P2;Temp;Humidity;BMP_temperature;BMP_pressure;BME280_temperature;BME280_humidity;BME280_pressure;Samples;Min_cycle;Max_cycle;Signal;HPM_P1;HPM_P2
2021/01/24 00:00:55;;;;;;;43.20;19.65;;;;;;;2.20;77.82;98391.61;119942;1148;22934;-60
2021/01/24 00:03:24;;;;;;;37.47;14.87;;;;;;;2.24;77.88;98383.94;120431;1148;22923;-60
2021/01/24 00:05:54;;;;;;;51.15;21.55;;;;;;;2.24;77.58;98383.16;120069;1148;23055;-61
2021/01/24 00:08:24;;;;;;;34.80;13.47;;;;;;;2.25;77.81;98376.44;120026;1148;22864;-60
2021/01/24 00:10:53;;;;;;;27.30;12.10;;;;;;;2.24;77.46;98378.43;119914;1148;25961;-62
2021/01/24 00:13:23;;;;;;;41.17;15.10;;;;;;;2.25;77.70;98373.69;120192;1148;23045;-62
2021/01/24 00:15:52;;;;;;;85.70;34.10;;;;;;;2.28;78.28;98367.23;120147;1147;27582;-60
2021/01/24 00:18:22;;;;;;;39.80;18.05;;;;;;;2.30;78.00;98367.52;120058;1147;22942;-60
2021/01/24 00:20:51;;;;;;;34.95;13.68;;;;;;;2.31;78.07;98367.08;119964;1148;23042;-60
2021/01/24 00:23:20;;;;;;;30.93;12.47;;;;;;;2.31;77.67;98364.33;120001;1148;27229;-59
2021/01/24 00:25:49;;;;;;;33.77;14.07;;;;;;;2.32;77.64;98370.57;119985;1147;26643;-60
2021/01/24 00:28:21;;;;;;;29.80;10.90;;;;;;;2.35;78.19;98370.41;120021;1148;22927;-60
2021/01/24 00:30:51;;;;;;;23.67;8.23;;;;;;;2.37;78.30;98373.46;120080;1148;22961;-60
2021/01/24 00:33:20;;;;;;;22.07;7.03;;;;;;;2.40;77.74;98372.51;119999;1148;26050;-59
2021/01/24 00:35:49;;;;;;;24.43;8.23;;;;;;;2.43;77.71;98379.84;120113;1150;23072;-61
2021/01/24 00:38:18;;;;;;;21.67;7.93;;;;;;;2.46;77.80;98389.17;120053;1150;22926;-61
2021/01/24 00:40:48;;;;;;;18.90;7.70;;;;;;;2.45;77.96;98384.87;119949;1148;26078;-59
2021/01/24 00:43:17;;;;;;;23.62;8.65;;;;;;;2.45;77.96;98374.63;120070;1148;22965;-60
2021/01/24 00:45:48;;;;;;;24.65;8.90;;;;;;;2.50;78.26;98370.47;119982;1150;24368;-60
2021/01/24 00:48:18;;;;;;;;;;;;;;;2.51;77.72;98379.47;120083;1149;28535;-62
2021/01/24 00:50:47;;;;;;;20.45;8.08;;;;;;;2.43;77.60;98377.09;119947;1148;25796;-60
2021/01/24 00:53:17;;;;;;;19.27;6.95;;;;;;;2.41;78.09;98374.05;119991;1150;22985;-60
2021/01/24 00:55:46;;;;;;;23.27;8.53;;;;;;;2.38;77.71;98366.71;119949;1149;27432;-60
2021/01/24 00:58:15;;;;;;;21.60;8.10;;;;;;;2.36;77.64;98368.41;120133;1148;23466;-60
2021/01/24 01:00:44;;;;;;;23.37;8.37;;;;;;;2.32;77.62;98359.56;120029;1151;22951;-60
2021/01/24 01:03:14;;;;;;;20.27;8.43;;;;;;;2.32;77.94;98360.33;119956;1148;26110;-63
2021/01/24 01:05:44;;;;;;;24.82;9.38;;;;;;;2.33;78.25;98359.11;120130;1150;22881;-59
2021/01/24 01:08:14;;;;;;;19.47;6.70;;;;;;;2.30;77.64;98356.51;120088;1148;22948;-60
2021/01/24 01:10:43;;;;;;;23.97;8.83;;;;;;;2.28;77.77;98354.23;120042;1148;22967;-60
2021/01/24 01:13:13;;;;;;;18.90;6.00;;;;;;;2.30;77.97;98360.03;120197;1148;24599;-59
2021/01/24 01:15:42;;;;;;;14.00;5.03;;;;;;;2.28;77.86;98356.98;120236;1148;23042;-60
2021/01/24 01:18:11;;;;;;;18.97;6.13;;;;;;;2.23;77.98;98351.38;120022;1148;24077;-63
2021/01/24 01:20:40;;;;;;;19.57;6.33;;;;;;;2.17;77.95;98353.98;119958;1148;22954;-61
2021/01/24 01:23:10;;;;;;;16.47;5.30;;;;;;;2.19;78.25;98350.79;120002;1148;22961;-60
2021/01/24 01:25:39;;;;;;;17.13;5.40;;;;;;;2.18;78.43;98358.28;119867;1149;26366;-60
2021/01/24 01:28:08;;;;;;;16.57;5.40;;;;;;;2.22;78.54;98358.09;123318;1150;23097;-60
2021/01/24 01:30:36;;;;;;;16.90;4.53;;;;;;;2.23;78.10;98354.13;120015;1149;24750;-60
2021/01/24 01:33:06;;;;;;;16.53;5.20;;;;;;;2.22;78.27;98350.60;119998;1148;22968;-62
2021/01/24 01:35:35;;;;;;;22.43;7.13;;;;;;;2.24;77.90;98353.66;120166;1148;27328;-60
2021/01/24 01:38:04;;;;;;;20.70;6.77;;;;;;;2.21;78.12;98349.09;120000;1148;22993;-60
2021/01/24 01:40:33;;;;;;;16.33;4.43;;;;;;;2.20;78.08;98349.55;120057;1150;22936;-59
2021/01/24 01:43:02;;;;;;;26.60;7.07;;;;;;;2.20;78.22;98344.80;120233;1148;22894;-62
2021/01/24 01:45:31;;;;;;;20.53;6.17;;;;;;;2.20;77.68;98341.28;119993;1148;27269;-59
2021/01/24 01:48:00;;;;;;;17.33;5.70;;;;;;;2.24;78.04;98347.37;119987;1148;22968;-59
2021/01/24 01:50:30;;;;;;;18.80;5.90;;;;;;;2.24;78.03;98344.63;120082;1148;22968;-60
2021/01/24 01:53:01;;;;;;;17.80;5.43;;;;;;;2.26;78.07;98336.66;120021;1148;22987;-60
2021/01/24 01:55:31;;;;;;;13.80;4.30;;;;;;;2.26;78.23;98328.39;120012;1148;22951;-62
2021/01/24 01:58:01;;;;;;;14.10;4.20;;;;;;;2.24;77.99;98322.59;120079;1148;27382;-61
2021/01/24 02:00:30;;;;;;;14.87;4.70;;;;;;;2.22;78.10;98325.06;120059;1148;26104;-59
2021/01/24 02:03:18;;;;;;;15.67;4.80;;;;;;;2.22;78.60;98325.06;120128;1148;22932;-60
2021/01/24 02:05:54;;;;;;;13.13;3.90;;;;;;;2.19;78.38;98320.51;120049;1148;23060;-62
2021/01/24 02:08:41;;;;;;;14.60;3.97;;;;;;;2.17;78.19;98317.46;120144;1148;23097;-60
2021/01/24 02:11:17;;;;;;;14.57;4.33;;;;;;;2.16;78.51;98322.20;119974;1148;22925;-61
2021/01/24 02:13:55;;;;;;;14.50;4.60;;;;;;;2.15;78.10;98320.66;120132;1148;22925;-59
2021/01/24 02:16:27;;;;;;;17.17;3.97;;;;;;;2.16;77.89;98324.95;120001;1148;22940;-60
2021/01/24 02:18:58;;;;;;;12.83;3.37;;;;;;;2.18;78.56;98328.00;120127;1148;22942;-60
2021/01/24 02:21:31;;;;;;;16.35;5.10;;;;;;;2.19;78.48;98337.02;120003;1148;22954;-61
2021/01/24 02:24:03;;;;;;;14.65;4.20;;;;;;;2.19;78.74;98326.02;120048;1148;22965;-60
2021/01/24 02:26:46;;;;;;;13.30;3.10;;;;;;;2.15;78.53;98328.92;120234;1148;23000;-59
2021/01/24 02:29:25;;;;;;;14.25;4.80;;;;;;;2.08;78.14;98325.77;120083;1148;26091;-60
2021/01/24 02:31:55;;;;;;;12.60;3.83;;;;;;;2.05;78.25;98324.70;120090;1148;23207;-61
2021/01/24 02:34:30;;;;;;;12.53;4.17;;;;;;;2.06;78.43;98323.48;120152;1148;23094;-60
2021/01/24 02:37:01;;;;;;;12.25;3.70;;;;;;;2.09;78.44;98325.29;120050;1148;23064;-60
2021/01/24 02:39:31;;;;;;;10.33;3.20;;;;;;;2.04;78.27;98325.95;120246;1148;23079;-60
2021/01/24 02:42:01;;;;;;;11.12;3.37;;;;;;;2.01;78.76;98326.09;120090;1148;22951;-60
2021/01/24 02:44:31;;;;;;;10.67;3.27;;;;;;;2.00;78.99;98322.61;119998;1148;24756;-60
2021/01/24 02:47:02;;;;;;;13.22;3.50;;;;;;;2.05;78.54;98326.72;120175;1148;25928;-60
2021/01/24 02:49:31;;;;;;;;;;;;;;;2.03;78.72;98329.91;120267;1148;27491;-59
2021/01/24 02:52:00;;;;;;;13.70;4.50;;;;;;;2.02;78.91;98320.15;120137;1148;21703;-61
2021/01/24 02:54:33;;;;;;;11.93;4.03;;;;;;;2.04;78.70;98325.95;120128;1148;22939;-59
2021/01/24 02:57:02;;;;;;;12.67;3.60;;;;;;;2.04;78.79;98327.93;120176;1148;24754;-59
2021/01/24 02:59:32;;;;;;;12.43;3.80;;;;;;;2.09;78.87;98324.55;120113;1148;22954;-59
2021/01/24 03:02:02;;;;;;;12.83;4.53;;;;;;;2.12;78.93;98326.34;120098;1148;27899;-60
2021/01/24 03:04:31;;;;;;;16.15;5.05;;;;;;;2.11;78.73;98322.83;120072;1148;22928;-60
2021/01/24 03:07:00;;;;;;;18.60;6.97;;;;;;;2.15;78.86;98319.92;119982;1148;22985;-60
2021/01/24 03:09:30;;;;;;;28.97;11.13;;;;;;;2.16;78.61;98315.92;120010;1148;22952;-60
2021/01/24 03:12:02;;;;;;;25.43;8.90;;;;;;;2.18;78.76;98318.97;119932;1148;23433;-60
2021/01/24 03:14:35;;;;;;;17.97;5.47;;;;;;;2.15;78.63;98312.41;120023;1150;23093;-60
2021/01/24 03:17:05;;;;;;;20.20;7.30;;;;;;;2.15;78.59;98317.91;120106;1148;23093;-62
2021/01/24 03:19:35;;;;;;;17.77;5.50;;;;;;;2.17;78.67;98306.45;120079;1148;22931;-60
2021/01/24 03:22:05;;;;;;;18.73;5.95;;;;;;;2.18;79.00;98302.45;120128;1150;22926;-59
2021/01/24 03:24:35;;;;;;;21.68;7.30;;;;;;;2.17;78.63;98293.42;120204;1149;22944;-60
2021/01/24 03:27:04;;;;;;;25.37;8.63;;;;;;;2.17;79.11;98296.17;124144;1149;22784;-61
2021/01/24 03:29:33;;;;;;;22.47;7.70;;;;;;;2.18;78.98;98297.72;120260;1149;22932;-60
2021/01/24 03:32:03;;;;;;;31.03;10.43;;;;;;;2.17;78.75;98293.42;120041;1148;26794;-61
2021/01/24 03:34:31;;;;;;;23.45;9.30;;;;;;;2.18;78.67;98297.72;120078;1148;22932;-60
2021/01/24 03:37:01;;;;;;;23.20;9.10;;;;;;;2.17;78.89;98293.42;119999;1148;23109;-61
2021/01/24 03:39:30;;;;;;;21.10;7.10;;;;;;;2.18;78.52;98289.45;120009;1148;22929;-62
2021/01/24 03:41:59;;;;;;;16.67;5.83;;;;;;;2.14;78.75;98288.88;120009;1150;22931;-60
2021/01/24 03:44:28;;;;;;;17.10;7.37;;;;;;;2.15;78.74;98284.14;120006;1148;26104;-61
2021/01/24 03:46:57;;;;;;;17.83;6.17;;;;;;;2.17;79.41;98287.92;120063;1150;27743;-61
2021/01/24 03:49:26;;;;;;;16.90;6.85;;;;;;;2.18;79.37;98291.44;119976;1150;24569;-59
2021/01/24 03:51:55;;;;;;;20.43;6.27;;;;;;;2.18;79.04;98296.95;120031;1150;22958;-59
2021/01/24 03:54:25;;;;;;;20.00;6.55;;;;;;;2.18;78.87;98291.44;120012;1150;24189;-59
2021/01/24 03:56:54;;;;;;;17.37;5.30;;;;;;;2.17;78.68;98295.44;120000;1150;26412;-59
2021/01/24 03:59:23;;;;;;;17.10;6.53;;;;;;;2.17;79.17;98289.94;120030;1150;23220;-59
2021/01/24 04:01:52;;;;;;;16.70;6.60;;;;;;;2.18;78.65;98288.69;119996;1148;25986;-60
2021/01/24 04:04:22;;;;;;;17.90;5.75;;;;;;;2.19;79.23;98290.97;119980;1150;22943;-61
2021/01/24 04:06:52;;;;;;;16.82;6.42;;;;;;;2.20;79.40;98295.25;120031;1150;22971;-60
2021/01/24 04:09:23;;;;;;;18.80;6.63;;;;;;;2.15;78.99;98290.38;120008;1150;22958;-60
2021/01/24 04:11:51;;;;;;;19.93;6.90;;;;;;;2.12;78.73;98285.83;120025;1148;22929;-59
2021/01/24 04:14:20;;;;;;;19.50;6.25;;;;;;;2.07;78.84;98283.71;119994;1148;24610;-60
2021/01/24 04:16:49;;;;;;;16.47;5.67;;;;;;;2.05;79.12;98280.67;120000;1148;26779;-61
2021/01/24 04:19:18;;;;;;;15.47;4.93;;;;;;;1.94;79.22;98291.46;120004;1148;22926;-60
2021/01/24 04:21:47;;;;;;;15.87;4.83;;;;;;;1.83;79.41;98280.20;120041;1148;23005;-59
2021/01/24 04:24:16;;;;;;;13.40;4.03;;;;;;;1.82;79.70;98283.43;119954;1148;26152;-61
2021/01/24 04:26:45;;;;;;;13.80;5.00;;;;;;;1.86;79.94;98292.27;119946;1148;22940;-60
2021/01/24 04:29:14;;;;;;;14.10;4.53;;;;;;;1.87;79.40;98289.05;119882;1148;25977;-60
2021/01/24 04:31:43;;;;;;;15.20;5.45;;;;;;;1.89;79.65;98285.81;119949;1148;22994;-60
2021/01/24 04:34:14;;;;;;;15.70;5.95;;;;;;;1.92;79.45;98285.66;120124;1148;22958;-60
2021/01/24 04:36:43;;;;;;;15.70;5.42;;;;;;;1.91;79.50;98291.61;120082;1148;23034;-58
2021/01/24 04:39:12;;;;;;;17.33;5.20;;;;;;;1.93;79.91;98287.17;120009;1148;22937;-60
2021/01/24 04:41:43;;;;;;;18.17;5.60;;;;;;;1.92;79.36;98288.41;120246;1148;23009;-60
2021/01/24 04:44:12;;;;;;;17.55;6.28;;;;;;;1.96;79.44;98279.98;120088;1148;23027;-62
2021/01/24 04:46:42;;;;;;;19.05;6.80;;;;;;;1.98;79.95;98280.27;120093;1148;24596;-60
2021/01/24 04:49:12;;;;;;;20.75;7.67;;;;;;;1.98;79.64;98280.27;120055;1150;22943;-61
2021/01/24 04:51:41;;;;;;;18.60;6.45;;;;;;;2.00;79.68;98273.07;120016;1148;26639;-61
2021/01/24 04:54:12;;;;;;;18.10;7.23;;;;;;;2.01;79.42;98273.81;120179;1148;27102;-60
2021/01/24 04:56:40;;;;;;;;;;;;;;;2.02;79.97;98275.34;120588;1150;22955;-61
2021/01/24 04:59:10;;;;;;;20.83;8.10;;;;;;;2.03;79.62;98277.63;120260;1148;21621;-60
2021/01/24 05:01:40;;;;;;;;;;;;;;;2.06;79.65;98279.45;120462;1148;22964;-59
2021/01/24 05:04:09;;;;;;;22.83;9.33;;;;;;;2.09;80.04;98272.99;120635;1148;21678;-59
2021/01/24 05:06:38;;;;;;;31.03;12.13;;;;;;;2.12;79.94;98277.58;120477;1148;22938;-59
2021/01/24 05:09:07;;;;;;;28.03;10.80;;;;;;;2.14;79.86;98274.34;120637;1148;23390;-61
2021/01/24 05:11:37;;;;;;;23.50;9.90;;;;;;;2.12;80.01;98266.56;120506;1150;22957;-59
2021/01/24 05:14:16;;;;;;;28.53;11.93;;;;;;;2.11;79.56;98267.04;120677;1148;27404;-59
2021/01/24 05:16:47;;;;;;;26.50;10.97;;;;;;;2.07;79.63;98253.44;120550;1148;22926;-60
2021/01/24 05:19:17;;;;;;;25.17;11.00;;;;;;;2.02;79.92;98254.09;120591;1150;24607;-60
2021/01/24 05:21:48;;;;;;;24.23;9.87;;;;;;;2.00;79.94;98253.81;120531;1148;24444;-60
2021/01/24 05:24:18;;;;;;;22.00;9.80;;;;;;;1.98;79.56;98245.27;120513;1148;26375;-59
2021/01/24 05:26:47;;;;;;;;;;;;;;;1.98;79.54;98242.52;120557;1148;22947;-60
2021/01/24 05:29:25;;;;;;;37.80;14.50;;;;;;;1.95;79.50;98246.19;120715;1148;21566;-61
2021/01/24 05:31:55;;;;;;;39.40;15.67;;;;;;;1.83;79.32;98246.42;120764;1148;22899;-60
2021/01/24 05:34:26;;;;;;;34.80;14.20;;;;;;;1.74;79.60;98238.24;120640;1148;29091;-61
2021/01/24 05:36:57;;;;;;;18.82;7.15;;;;;;;1.62;79.86;98237.99;120586;1148;22954;-59
2021/01/24 05:39:28;;;;;;;21.73;8.00;;;;;;;1.51;79.82;98228.75;120672;1148;22930;-59
2021/01/24 05:41:58;;;;;;;19.13;6.63;;;;;;;1.43;80.04;98233.04;120598;1148;23007;-60
2021/01/24 05:44:27;;;;;;;;;;;;;;;1.37;80.75;98226.66;120747;1148;22982;-60
2021/01/24 05:47:03;;;;;;;19.70;7.13;;;;;;;1.32;80.18;98230.83;120708;1148;21711;-60
2021/01/24 05:49:33;;;;;;;19.40;7.10;;;;;;;1.28;80.36;98235.70;120760;1148;22958;-60
2021/01/24 05:52:05;;;;;;;22.07;7.97;;;;;;;1.30;81.07;98243.51;120626;1148;22957;-59
2021/01/24 05:54:42;;;;;;;23.97;8.30;;;;;;;1.34;81.26;98247.62;120706;1148;23016;-61
2021/01/24 05:57:12;;;;;;;21.65;8.10;;;;;;;1.40;81.13;98251.25;120573;1148;22958;-61
2021/01/24 05:59:53;;;;;;;19.93;7.27;;;;;;;1.43;80.88;98246.78;120639;1148;22926;-61
2021/01/24 06:02:25;;;;;;;21.37;8.03;;;;;;;1.40;80.54;98242.23;121107;1148;26628;-60
2021/01/24 06:04:53;;;;;;;;;;;;;;;1.37;81.03;98254.92;120538;1148;22932;-61
2021/01/24 06:07:23;;;;;;;20.33;7.23;;;;;;;1.39;81.05;98257.96;120559;1148;21566;-60
2021/01/24 06:09:53;;;;;;;21.48;7.58;;;;;;;1.41;80.53;98252.76;120598;1148;22938;-60
2021/01/24 06:12:25;;;;;;;22.50;7.57;;;;;;;1.44;81.19;98257.34;120536;1148;22951;-61
2021/01/24 06:14:55;;;;;;;21.43;8.63;;;;;;;1.50;81.43;98254.70;120603;1148;22893;-60
2021/01/24 06:17:30;;;;;;;17.02;7.15;;;;;;;1.56;81.35;98253.61;120457;1148;22932;-61
2021/01/24 06:20:01;;;;;;;23.23;8.23;;;;;;;1.65;81.11;98252.80;120510;1148;24752;-61
2021/01/24 06:22:39;;;;;;;20.53;7.87;;;;;;;1.70;81.14;98243.89;120513;1148;24502;-60
2021/01/24 06:25:15;;;;;;;23.33;9.73;;;;;;;1.73;80.82;98256.73;120447;1148;22929;-61
2021/01/24 06:27:51;;;;;;;24.70;9.90;;;;;;;1.75;80.91;98253.50;120348;1148;22925;-59
2021/01/24 06:30:23;;;;;;;22.50;9.13;;;;;;;1.80;80.50;98244.62;120478;1148;22934;-60
2021/01/24 06:32:54;;;;;;;26.13;10.73;;;;;;;1.83;80.63;98246.42;120780;1148;25888;-61
2021/01/24 06:35:27;;;;;;;22.80;9.75;;;;;;;1.86;81.04;98251.77;120585;1148;24367;-61
2021/01/24 06:38:01;;;;;;;23.07;9.43;;;;;;;1.89;80.90;98259.07;120694;1148;22934;-61
2021/01/24 06:40:32;;;;;;;24.63;11.30;;;;;;;1.92;81.03;98260.12;120492;1148;22926;-60
2021/01/24 06:43:03;;;;;;;28.15;10.70;;;;;;;1.92;80.75;98266.41;120672;1148;23001;-60
2021/01/24 06:45:42;;;;;;;26.13;11.00;;;;;;;1.94;80.36;98263.17;120585;1148;22929;-61
2021/01/24 06:48:16;;;;;;;29.77;12.03;;;;;;;1.95;80.90;98261.93;120448;1148;22916;-60
2021/01/24 06:50:48;;;;;;;27.60;11.40;;;;;;;1.97;80.30;98273.23;120609;1148;25512;-60
2021/01/24 06:53:23;;;;;;;27.70;11.50;;;;;;;1.97;80.64;98276.75;120456;1148;23036;-61
2021/01/24 06:55:58;;;;;;;26.80;12.13;;;;;;;1.99;80.86;98279.80;120364;1148;22937;-60
2021/01/24 06:58:30;;;;;;;30.93;12.83;;;;;;;2.00;80.49;98273.07;120585;1148;27280;-63
2021/01/24 07:01:27;;;;;;;29.87;12.77;;;;;;;2.00;80.39;98275.83;120479;1148;22923;-59
2021/01/24 07:04:43;;;;;;;33.47;14.00;;;;;;;1.97;80.40;98271.25;120304;1148;22982;-59
2021/01/24 07:07:37;;;;;;;31.80;14.10;;;;;;;1.95;80.73;98281.96;120297;1150;23096;-60
2021/01/24 07:10:31;;;;;;;29.90;12.07;;;;;;;1.97;80.60;98279.50;120378;1148;22891;-60
2021/01/24 07:13:00;;;;;;;32.97;12.97;;;;;;;1.99;80.28;98281.78;120208;1150;22926;-60
2021/01/24 07:15:29;;;;;;;29.57;13.40;;;;;;;1.99;80.52;98285.30;120381;1150;23090;-60
2021/01/24 07:18:01;;;;;;;32.57;14.27;;;;;;;2.00;80.81;98278.58;120337;1150;23090;-59
2021/01/24 07:20:30;;;;;;;31.07;14.30;;;;;;;2.01;80.54;98274.58;120351;1148;22929;-59
2021/01/24 07:23:01;;;;;;;35.00;14.33;;;;;;;2.01;80.81;98277.33;120368;1148;23090;-59
2021/01/24 07:25:31;;;;;;;32.20;13.47;;;;;;;2.01;80.51;98280.08;120406;1149;27944;-59
2021/01/24 07:28:01;;;;;;;32.80;13.57;;;;;;;1.99;79.99;98284.53;120428;1149;22898;-59
2021/01/24 07:30:30;;;;;;;36.50;17.00;;;;;;;1.91;80.09;98283.36;120524;1149;23386;-59
2021/01/24 07:32:59;;;;;;;35.47;15.93;;;;;;;1.90;80.86;98282.62;120344;1148;22954;-60
2021/01/24 07:35:28;;;;;;;36.63;16.57;;;;;;;1.93;80.29;98280.90;120559;1150;27410;-60
2021/01/24 07:37:57;;;;;;;37.30;16.17;;;;;;;1.93;80.45;98280.90;120357;1150;25960;-59
2021/01/24 07:40:28;;;;;;;35.33;16.13;;;;;;;1.95;80.42;98286.70;120333;1150;27237;-58
2021/01/24 07:42:57;;;;;;;44.73;17.93;;;;;;;1.96;80.81;98277.22;120389;1148;22965;-60
2021/01/24 07:45:27;;;;;;;41.73;16.90;;;;;;;1.95;80.23;98281.19;120405;1150;23067;-60
2021/01/24 07:47:56;;;;;;;42.60;19.05;;;;;;;1.93;80.18;98283.66;120468;1148;24546;-60
2021/01/24 07:50:26;;;;;;;46.43;19.47;;;;;;;1.93;80.84;98278.15;120408;1148;23013;-60
2021/01/24 07:52:56;;;;;;;44.15;20.95;;;;;;;1.95;80.60;98279.20;120465;1150;22935;-62
2021/01/24 07:55:26;;;;;;;49.00;21.48;;;;;;;1.93;80.50;98280.90;120491;1148;23011;-60
2021/01/24 07:57:55;;;;;;;46.67;21.27;;;;;;;1.86;80.80;98279.28;120368;1148;26399;-60
2021/01/24 08:00:26;;;;;;;53.67;22.70;;;;;;;1.80;80.82;98278.37;120371;1148;22993;-62
2021/01/24 08:02:56;;;;;;;59.53;25.80;;;;;;;1.78;81.01;98282.84;120405;1148;22929;-61
2021/01/24 08:05:30;;;;;;;64.15;29.60;;;;;;;1.78;80.75;98275.33;120458;1148;26364;-59
2021/01/24 08:08:00;;;;;;;64.80;26.53;;;;;;;1.71;80.47;98272.17;120317;1148;22859;-60
2021/01/24 08:10:33;;;;;;;78.43;28.53;;;;;;;1.69;80.99;98275.39;120486;1148;22975;-60
2021/01/24 08:13:03;;;;;;;75.20;27.50;;;;;;;1.66;81.06;98270.81;120529;1148;24344;-59
2021/01/24 08:15:32;;;;;;;58.90;25.82;;;;;;;1.64;80.78;98274.04;120419;1148;23093;-59
2021/01/24 08:18:02;;;;;;;52.57;22.20;;;;;;;1.62;80.61;98281.23;120573;1148;22965;-60
2021/01/24 08:20:31;;;;;;;46.85;22.22;;;;;;;1.63;81.32;98274.52;120284;1148;26475;-59
2021/01/24 08:23:01;;;;;;;38.87;18.40;;;;;;;1.62;81.48;98287.50;120173;1148;23483;-60
2021/01/24 08:25:30;;;;;;;35.60;16.00;;;;;;;1.60;81.53;98284.45;120376;1148;22935;-59
2021/01/24 08:28:00;;;;;;;31.23;13.40;;;;;;;1.63;81.11;98283.50;120288;1148;23454;-60
2021/01/24 08:30:38;;;;;;;28.43;12.03;;;;;;;1.68;81.30;98284.86;120311;1148;22982;-61
2021/01/24 08:33:08;;;;;;;29.63;12.53;;;;;;;1.71;81.54;98280.42;120538;1148;23065;-62
2021/01/24 08:35:37;;;;;;;25.68;9.85;;;;;;;1.74;81.21;98291.25;120419;1148;24704;-63
2021/01/24 08:38:06;;;;;;;30.53;12.23;;;;;;;1.72;80.74;98277.20;120468;1148;22964;-62
2021/01/24 08:40:37;;;;;;;32.97;12.70;;;;;;;1.69;81.39;98278.15;120418;1148;22870;-60
2021/01/24 08:43:06;;;;;;;31.42;12.60;;;;;;;1.69;81.01;98278.15;120543;1148;22965;-59
2021/01/24 08:45:37;;;;;;;32.67;12.95;;;;;;;1.72;81.25;98274.45;120375;1148;23067;-60
2021/01/24 08:48:15;;;;;;;34.20;14.30;;;;;;;1.73;81.26;98272.47;120244;1148;22964;-61
2021/01/24 08:50:44;;;;;;;36.73;15.17;;;;;;;1.74;81.60;98282.99;120367;1148;23031;-61
2021/01/24 08:53:13;;;;;;;34.10;13.75;;;;;;;1.71;81.46;98283.17;120474;1148;24550;-61
2021/01/24 08:55:50;;;;;;;32.87;14.13;;;;;;;1.66;80.82;98281.81;120560;1148;27360;-61
2021/01/24 08:58:26;;;;;;;32.30;12.93;;;;;;;1.68;81.62;98287.61;120408;1148;23008;-61
2021/01/24 09:01:06;;;;;;;35.23;14.30;;;;;;;1.71;81.28;98288.67;120560;1148;23106;-62
2021/01/24 09:03:35;;;;;;;32.63;13.35;;;;;;;1.75;81.37;98287.28;120494;1148;22954;-62
2021/01/24 09:06:19;;;;;;;32.17;13.30;;;;;;;1.77;81.33;98289.56;120530;1148;22971;-60
2021/01/24 09:08:50;;;;;;;33.27;12.53;;;;;;;1.81;81.94;98284.64;120469;1148;23093;-60
2021/01/24 09:11:20;;;;;;;35.17;13.53;;;;;;;1.88;81.86;98289.81;120496;1148;28116;-60
2021/01/24 09:13:49;;;;;;;30.93;11.87;;;;;;;1.92;81.17;98285.66;120516;1148;23097;-60
2021/01/24 09:16:21;;;;;;;30.52;12.93;;;;;;;1.95;81.46;98292.20;120475;1148;27063;-60
2021/01/24 09:18:52;;;;;;;34.80;15.55;;;;;;;1.99;81.60;98292.78;120550;1148;22951;-61
2021/01/24 09:21:26;;;;;;;37.98;16.62;;;;;;;2.02;81.33;98292.63;120309;1148;23009;-61
2021/01/24 09:23:55;;;;;;;46.57;21.43;;;;;;;2.05;81.58;98299.94;120275;1148;22941;-61
2021/01/24 09:26:24;;;;;;;47.40;22.63;;;;;;;2.08;81.30;98301.00;120531;1148;22982;-61
2021/01/24 09:28:54;;;;;;;42.13;19.17;;;;;;;2.13;81.97;98303.11;120299;1148;22932;-62
2021/01/24 09:31:25;;;;;;;36.55;15.95;;;;;;;2.16;81.95;98300.17;120266;1148;23096;-63
2021/01/24 09:33:55;;;;;;;33.20;13.13;;;;;;;2.16;81.31;98307.67;121758;1148;27470;-61
2021/01/24 09:36:24;;;;;;;31.63;12.77;;;;;;;2.18;81.70;98297.72;119631;1148;22942;-61
2021/01/24 09:38:56;;;;;;;31.80;12.63;;;;;;;2.21;81.73;98298.77;119788;1148;22965;-61
2021/01/24 09:41:26;;;;;;;29.35;11.55;;;;;;;2.25;81.35;98296.61;124119;1148;22714;-62
2021/01/24 09:44:00;;;;;;;29.57;12.57;;;;;;;2.31;81.78;98289.22;124087;1149;22685;-62
2021/01/24 09:46:32;;;;;;;28.63;12.13;;;;;;;2.34;81.60;98282.75;124111;1149;22717;-62
2021/01/24 09:49:02;;;;;;;31.30;12.93;;;;;;;2.34;81.26;98283.52;124149;1148;22725;-62
2021/01/24 09:51:31;;;;;;;28.43;12.67;;;;;;;2.30;81.16;98276.66;124045;1148;22705;-62
2021/01/24 09:54:01;;;;;;;28.23;10.90;;;;;;;2.30;81.53;98279.42;124129;1148;22738;-63
2021/01/24 09:56:31;;;;;;;26.77;11.97;;;;;;;2.29;81.59;98286.17;124082;1147;23506;-64
2021/01/24 09:59:01;;;;;;;27.55;11.97;;;;;;;2.32;81.76;98285.98;124104;1148;23857;-62
2021/01/24 10:01:30;;;;;;;28.67;11.87;;;;;;;2.38;81.86;98286.08;124127;1148;23456;-62
2021/01/24 10:03:59;;;;;;;32.07;12.43;;;;;;;2.41;81.54;98283.17;124072;1148;22739;-62
2021/01/24 10:06:28;;;;;;;26.83;12.23;;;;;;;2.42;81.75;98273.66;124095;1148;22761;-61
2021/01/24 10:08:57;;;;;;;32.20;13.97;;;;;;;2.44;81.28;98273.95;124058;1148;22713;-61
2021/01/24 10:11:27;;;;;;;38.97;14.33;;;;;;;2.50;81.81;98284.33;124095;1148;22739;-62
2021/01/24 10:13:56;;;;;;;27.67;11.67;;;;;;;2.53;81.31;98275.88;124048;1148;22744;-62
2021/01/24 10:16:26;;;;;;;30.20;13.43;;;;;;;2.56;81.65;98274.17;124078;1148;22842;-61
2021/01/24 10:19:46;;;;;;;27.15;10.43;;;;;;;2.59;81.30;98271.23;124090;1148;24381;-61
2021/01/24 10:22:22;;;;;;;29.63;10.67;;;;;;;2.64;81.13;98267.83;124066;1148;24006;-62
2021/01/24 10:24:51;;;;;;;30.77;14.10;;;;;;;2.68;81.39;98259.36;124149;1148;23618;-61
2021/01/24 10:27:20;;;;;;;30.07;13.87;;;;;;;2.71;82.02;98261.92;124053;1148;23949;-60
2021/01/24 10:29:50;;;;;;;39.35;18.15;;;;;;;2.78;81.96;98253.30;124082;1148;23558;-61
2021/01/24 10:32:19;;;;;;;32.65;13.50;;;;;;;2.80;81.12;98250.83;124069;1148;22814;-60
2021/01/24 10:34:49;;;;;;;44.35;20.20;;;;;;;2.79;81.18;98246.56;124107;1148;23402;-60
2021/01/24 10:37:18;;;;;;;60.88;29.32;;;;;;;2.83;81.33;98244.38;124035;1148;24859;-60
2021/01/24 10:39:48;;;;;;;76.80;36.23;;;;;;;2.91;81.99;98245.52;124169;1148;22734;-60
2021/01/24 11:23:17;;;;;;;25.63;9.27;;;;;;;3.15;81.09;98261.94;120041;1148;22929;-58
2021/01/24 11:26:40;;;;;;;20.90;7.90;;;;;;;3.14;80.42;98250.17;120285;1147;22875;-60
2021/01/24 11:29:09;;;;;;;18.40;6.35;;;;;;;3.11;80.37;98248.35;120007;1150;25384;-59
2021/01/24 11:31:38;;;;;;;20.00;6.40;;;;;;;3.07;79.88;98258.05;120151;1149;26635;-59
2021/01/24 11:34:08;;;;;;;22.43;9.90;;;;;;;3.08;80.46;98259.58;120058;1150;22983;-60
2021/01/24 11:36:37;;;;;;;33.20;14.53;;;;;;;3.11;81.00;98247.58;120140;1149;27825;-61
2021/01/24 11:39:07;;;;;;;29.95;12.00;;;;;;;3.12;80.81;98251.88;120056;1149;23081;-59
2021/01/24 11:41:36;;;;;;;32.73;14.90;;;;;;;3.10;81.21;98246.08;120300;1149;23084;-59
2021/01/24 11:44:07;;;;;;;27.90;11.63;;;;;;;3.07;81.01;98249.77;120204;1150;22925;-60
2021/01/24 11:46:36;;;;;;;27.67;11.43;;;;;;;3.05;81.11;98249.49;120230;1150;23995;-60
2021/01/24 11:49:05;;;;;;;25.13;9.63;;;;;;;3.04;80.95;98248.73;119982;1151;22919;-57
2021/01/24 11:51:37;;;;;;;23.00;8.10;;;;;;;3.05;80.68;98255.77;120033;1150;23006;-62
2021/01/24 11:54:07;;;;;;;39.97;18.60;;;;;;;3.09;81.42;98259.09;120080;1150;22934;-60
2021/01/24 11:56:36;;;;;;;;;;;;;;;3.11;81.17;98267.65;120190;1150;24741;-60
2021/01/24 11:59:05;;;;;;;46.60;20.75;;;;;;;3.13;81.57;98273.45;120460;1149;21579;-60
2021/01/24 12:01:35;;;;;;;47.20;23.80;;;;;;;3.16;82.06;98274.50;120261;1149;22939;-59
2021/01/24 12:04:05;;;;;;;50.65;26.70;;;;;;;3.22;81.92;98272.59;120089;1149;23013;-59
2021/01/24 12:06:35;;;;;;;53.30;27.58;;;;;;;3.28;82.08;98273.44;120724;1150;22904;-59
2021/01/24 12:09:05;;;;;;;37.50;20.20;;;;;;;3.34;82.11;98266.01;120134;1149;22972;-59
2021/01/24 12:11:36;;;;;;;38.57;21.60;;;;;;;3.39;81.26;98264.58;120390;1150;27223;-60
2021/01/24 12:14:05;;;;;;;32.88;16.80;;;;;;;3.40;81.68;98258.58;120434;1149;22934;-59
2021/01/24 12:16:35;;;;;;;28.83;12.93;;;;;;;3.42;81.58;98258.09;120510;1149;26482;-60
2021/01/24 12:19:05;;;;;;;27.40;11.73;;;;;;;3.41;81.30;98251.84;120218;1150;23016;-60
2021/01/24 12:21:34;;;;;;;49.70;23.05;;;;;;;3.40;81.46;98246.78;120587;1149;28224;-59
2021/01/24 12:24:07;;;;;;;28.90;11.50;;;;;;;3.42;80.81;98245.06;120173;1149;25829;-61